sensor_id;sensor_type;location;lat;lon;timestamp;P1;durP1;ratioP1;P2;durP2;ratioP2
21780;SDS011;52576;53.614;9.894;2023-05-07T00:01:13;15.48;;;11.10;;
21780;SDS011;52576;53.614;9.894;2023-05-07T00:03:18;12.93;;;10.25;;
21780;SDS011;52576;53.614;9.894;2023-05-07T00:05:23;14.60;;;10.70;;
21780;SDS011;52576;53.614;9.894;2023-05-07T00:07:26;14.07;;;10.63;;
21780;SDS011;52576;53.614;9.894;2023-05-07T00:09:31;15.95;;;11.02;;
21780;SDS011;52576;53.614;9.894;2023-05-07T00:11:34;15.70;;;11.23;;
21780;SDS011;52576;53.614;9.894;2023-05-07T00:13:38;13.80;;;10.68;;
21780;SDS011;52576;53.614;9.894;2023-05-07T00:15:41;18.35;;;11.07;;
21780;SDS011;52576;53.614;9.894;2023-05-07T00:17:44;15.50;;;11.02;;
21780;SDS011;52576;53.614;9.894;2023-05-07T00:19:47;14.02;;;11.13;;
21780;SDS011;52576;53.614;9.894;2023-05-07T00:21:51;16.27;;;11.05;;
21780;SDS011;52576;53.614;9.894;2023-05-07T00:23:55;14.23;;;11.40;;
21780;SDS011;52576;53.614;9.894;2023-05-07T00:25:59;14.55;;;11.43;;
21780;SDS011;52576;53.614;9.894;2023-05-07T00:28:02;14.40;;;11.02;;
21780;SDS011;52576;53.614;9.894;2023-05-07T00:30:06;16.75;;;11.45;;
21780;SDS011;52576;53.614;9.894;2023-05-07T00:32:10;15.77;;;11.00;;
21780;SDS011;52576;53.614;9.894;2023-05-07T00:34:14;17.05;;;11.98;;
21780;SDS011;52576;53.614;9.894;2023-05-07T00:36:17;14.02;;;11.55;;
21780;SDS011;52576;53.614;9.894;2023-05-07T00:38:20;19.75;;;12.00;;
21780;SDS011;52576;53.614;9.894;2023-05-07T00:40:23;16.00;;;12.27;;
21780;SDS011;52576;53.614;9.894;2023-05-07T00:42:28;17.45;;;11.77;;
21780;SDS011;52576;53.614;9.894;2023-05-07T00:44:31;15.80;;;12.02;;
21780;SDS011;52576;53.614;9.894;2023-05-07T00:46:34;18.60;;;12.82;;
21780;SDS011;52576;53.614;9.894;2023-05-07T00:48:38;16.38;;;12.65;;
21780;SDS011;52576;53.614;9.894;2023-05-07T00:50:41;15.52;;;11.85;;
21780;SDS011;52576;53.614;9.894;2023-05-07T00:52:45;16.38;;;12.38;;
21780;SDS011;52576;53.614;9.894;2023-05-07T00:54:48;16.80;;;12.20;;
21780;SDS011;52576;53.614;9.894;2023-05-07T00:56:51;14.55;;;12.05;;
21780;SDS011;52576;53.614;9.894;2023-05-07T00:58:56;16.45;;;11.85;;
21780;SDS011;52576;53.614;9.894;2023-05-07T01:00:59;17.63;;;12.60;;
21780;SDS011;52576;53.614;9.894;2023-05-07T01:03:03;15.48;;;11.75;;
21780;SDS011;52576;53.614;9.894;2023-05-07T01:05:09;16.15;;;11.18;;
21780;SDS011;52576;53.614;9.894;2023-05-07T01:07:15;17.83;;;12.43;;
21780;SDS011;52576;53.614;9.894;2023-05-07T01:09:19;16.00;;;11.25;;
21780;SDS011;52576;53.614;9.894;2023-05-07T01:11:23;16.50;;;12.00;;
21780;SDS011;52576;53.614;9.894;2023-05-07T01:13:27;15.52;;;11.32;;
21780;SDS011;52576;53.614;9.894;2023-05-07T01:15:32;15.23;;;11.65;;
21780;SDS011;52576;53.614;9.894;2023-05-07T01:17:35;15.35;;;11.80;;
21780;SDS011;52576;53.614;9.894;2023-05-07T01:19:42;15.65;;;10.68;;
21780;SDS011;52576;53.614;9.894;2023-05-07T01:21:46;17.70;;;12.07;;
21780;SDS011;52576;53.614;9.894;2023-05-07T01:23:54;16.00;;;11.73;;
21780;SDS011;52576;53.614;9.894;2023-05-07T01:25:58;13.85;;;11.13;;
21780;SDS011;52576;53.614;9.894;2023-05-07T01:28:03;17.02;;;11.57;;
21780;SDS011;52576;53.614;9.894;2023-05-07T01:30:10;15.80;;;11.23;;
21780;SDS011;52576;53.614;9.894;2023-05-07T01:32:14;15.60;;;11.23;;
21780;SDS011;52576;53.614;9.894;2023-05-07T01:34:24;13.00;;;10.65;;
21780;SDS011;52576;53.614;9.894;2023-05-07T01:36:28;15.45;;;11.05;;
21780;SDS011;52576;53.614;9.894;2023-05-07T01:38:33;15.88;;;10.48;;
21780;SDS011;52576;53.614;9.894;2023-05-07T01:40:38;13.90;;;9.93;;
21780;SDS011;52576;53.614;9.894;2023-05-07T01:42:41;12.88;;;9.40;;
21780;SDS011;52576;53.614;9.894;2023-05-07T01:44:46;13.10;;;9.52;;
21780;SDS011;52576;53.614;9.894;2023-05-07T01:46:49;12.73;;;9.50;;
21780;SDS011;52576;53.614;9.894;2023-05-07T01:48:53;12.20;;;9.02;;
21780;SDS011;52576;53.614;9.894;2023-05-07T01:50:56;14.90;;;9.60;;
21780;SDS011;52576;53.614;9.894;2023-05-07T01:52:59;12.25;;;9.23;;
21780;SDS011;52576;53.614;9.894;2023-05-07T01:55:04;13.90;;;10.05;;
21780;SDS011;52576;53.614;9.894;2023-05-07T01:57:10;13.73;;;9.48;;
21780;SDS011;52576;53.614;9.894;2023-05-07T01:59:13;12.15;;;9.38;;
21780;SDS011;52576;53.614;9.894;2023-05-07T02:01:17;12.57;;;9.35;;
21780;SDS011;52576;53.614;9.894;2023-05-07T02:03:21;14.27;;;9.35;;
21780;SDS011;52576;53.614;9.894;2023-05-07T02:05:32;12.80;;;9.38;;
21780;SDS011;52576;53.614;9.894;2023-05-07T02:07:41;16.52;;;9.85;;
21780;SDS011;52576;53.614;9.894;2023-05-07T02:09:45;12.45;;;9.35;;
21780;SDS011;52576;53.614;9.894;2023-05-07T02:11:48;11.02;;;8.52;;
21780;SDS011;52576;53.614;9.894;2023-05-07T02:13:55;11.40;;;9.00;;
21780;SDS011;52576;53.614;9.894;2023-05-07T02:15:58;11.68;;;8.85;;
21780;SDS011;52576;53.614;9.894;2023-05-07T02:18:02;11.30;;;9.40;;
21780;SDS011;52576;53.614;9.894;2023-05-07T02:20:08;14.10;;;9.23;;
21780;SDS011;52576;53.614;9.894;2023-05-07T02:22:16;12.30;;;9.25;;
21780;SDS011;52576;53.614;9.894;2023-05-07T02:24:19;14.02;;;9.40;;
21780;SDS011;52576;53.614;9.894;2023-05-07T02:26:23;10.23;;;8.40;;
21780;SDS011;52576;53.614;9.894;2023-05-07T02:28:27;12.95;;;9.50;;
21780;SDS011;52576;53.614;9.894;2023-05-07T02:30:38;11.88;;;8.88;;
21780;SDS011;52576;53.614;9.894;2023-05-07T02:32:41;12.20;;;9.30;;
21780;SDS011;52576;53.614;9.894;2023-05-07T02:34:44;13.82;;;9.85;;
21780;SDS011;52576;53.614;9.894;2023-05-07T02:36:48;14.15;;;9.20;;
21780;SDS011;52576;53.614;9.894;2023-05-07T02:38:55;15.00;;;9.32;;
21780;SDS011;52576;53.614;9.894;2023-05-07T02:40:59;12.38;;;8.82;;
21780;SDS011;52576;53.614;9.894;2023-05-07T02:43:02;12.13;;;8.85;;
21780;SDS011;52576;53.614;9.894;2023-05-07T02:45:06;11.85;;;9.27;;
21780;SDS011;52576;53.614;9.894;2023-05-07T02:47:12;12.05;;;8.90;;
21780;SDS011;52576;53.614;9.894;2023-05-07T02:49:18;12.82;;;9.13;;
21780;SDS011;52576;53.614;9.894;2023-05-07T02:51:22;14.82;;;9.13;;
21780;SDS011;52576;53.614;9.894;2023-05-07T02:53:28;12.57;;;8.73;;
21780;SDS011;52576;53.614;9.894;2023-05-07T02:55:32;11.55;;;8.75;;
21780;SDS011;52576;53.614;9.894;2023-05-07T02:57:35;12.07;;;8.35;;
21780;SDS011;52576;53.614;9.894;2023-05-07T02:59:40;10.82;;;8.23;;
21780;SDS011;52576;53.614;9.894;2023-05-07T03:01:45;13.45;;;8.73;;
21780;SDS011;52576;53.614;9.894;2023-05-07T03:03:51;13.02;;;9.07;;
21780;SDS011;52576;53.614;9.894;2023-05-07T03:05:54;14.00;;;8.50;;
21780;SDS011;52576;53.614;9.894;2023-05-07T03:07:57;10.95;;;8.25;;
21780;SDS011;52576;53.614;9.894;2023-05-07T03:10:00;13.10;;;8.45;;
21780;SDS011;52576;53.614;9.894;2023-05-07T03:12:04;13.73;;;9.07;;
21780;SDS011;52576;53.614;9.894;2023-05-07T03:14:07;12.57;;;8.68;;
21780;SDS011;52576;53.614;9.894;2023-05-07T03:16:10;10.93;;;7.80;;
21780;SDS011;52576;53.614;9.894;2023-05-07T03:18:14;11.55;;;7.90;;
21780;SDS011;52576;53.614;9.894;2023-05-07T03:20:19;12.07;;;8.93;;
21780;SDS011;52576;53.614;9.894;2023-05-07T03:22:22;13.52;;;8.73;;
21780;SDS011;52576;53.614;9.894;2023-05-07T03:24:26;12.75;;;8.63;;
21780;SDS011;52576;53.614;9.894;2023-05-07T03:26:29;11.57;;;8.57;;
21780;SDS011;52576;53.614;9.894;2023-05-07T03:28:32;11.32;;;8.40;;
21780;SDS011;52576;53.614;9.894;2023-05-07T03:30:39;13.68;;;9.25;;
21780;SDS011;52576;53.614;9.894;2023-05-07T03:32:42;15.23;;;9.70;;
21780;SDS011;52576;53.614;9.894;2023-05-07T03:34:46;12.55;;;9.23;;
21780;SDS011;52576;53.614;9.894;2023-05-07T03:36:51;13.35;;;10.02;;
21780;SDS011;52576;53.614;9.894;2023-05-07T03:38:57;13.75;;;9.88;;
21780;SDS011;52576;53.614;9.894;2023-05-07T03:41:08;13.02;;;9.38;;
21780;SDS011;52576;53.614;9.894;2023-05-07T03:43:12;14.90;;;10.55;;
21780;SDS011;52576;53.614;9.894;2023-05-07T03:45:20;13.02;;;9.60;;
21780;SDS011;52576;53.614;9.894;2023-05-07T03:47:32;13.75;;;10.50;;
21780;SDS011;52576;53.614;9.894;2023-05-07T03:49:35;15.32;;;10.32;;
21780;SDS011;52576;53.614;9.894;2023-05-07T03:51:40;14.20;;;10.25;;
21780;SDS011;52576;53.614;9.894;2023-05-07T03:53:44;14.48;;;10.20;;
21780;SDS011;52576;53.614;9.894;2023-05-07T03:55:48;14.00;;;9.98;;
21780;SDS011;52576;53.614;9.894;2023-05-07T03:57:52;12.90;;;9.77;;
21780;SDS011;52576;53.614;9.894;2023-05-07T03:59:55;13.40;;;9.73;;
21780;SDS011;52576;53.614;9.894;2023-05-07T04:01:58;14.07;;;9.68;;
21780;SDS011;52576;53.614;9.894;2023-05-07T04:04:06;12.63;;;9.23;;
21780;SDS011;52576;53.614;9.894;2023-05-07T04:06:10;14.68;;;10.43;;
21780;SDS011;52576;53.614;9.894;2023-05-07T04:08:18;15.52;;;9.80;;
21780;SDS011;52576;53.614;9.894;2023-05-07T04:10:25;12.02;;;9.30;;
21780;SDS011;52576;53.614;9.894;2023-05-07T04:12:31;11.52;;;9.27;;
21780;SDS011;52576;53.614;9.894;2023-05-07T04:14:34;13.07;;;9.15;;
21780;SDS011;52576;53.614;9.894;2023-05-07T04:16:38;12.77;;;9.07;;
21780;SDS011;52576;53.614;9.894;2023-05-07T04:18:42;11.38;;;9.20;;
21780;SDS011;52576;53.614;9.894;2023-05-07T04:20:45;13.57;;;9.52;;
21780;SDS011;52576;53.614;9.894;2023-05-07T04:22:49;12.32;;;9.02;;
21780;SDS011;52576;53.614;9.894;2023-05-07T04:24:53;13.45;;;9.27;;
21780;SDS011;52576;53.614;9.894;2023-05-07T04:26:58;11.48;;;8.95;;
21780;SDS011;52576;53.614;9.894;2023-05-07T04:29:01;11.27;;;8.65;;
21780;SDS011;52576;53.614;9.894;2023-05-07T04:31:07;13.32;;;8.85;;
21780;SDS011;52576;53.614;9.894;2023-05-07T04:33:13;12.50;;;9.38;;
21780;SDS011;52576;53.614;9.894;2023-05-07T04:35:18;10.75;;;8.48;;
21780;SDS011;52576;53.614;9.894;2023-05-07T04:37:22;12.60;;;9.20;;
21780;SDS011;52576;53.614;9.894;2023-05-07T04:39:25;14.40;;;9.23;;
21780;SDS011;52576;53.614;9.894;2023-05-07T04:41:29;12.38;;;9.00;;
21780;SDS011;52576;53.614;9.894;2023-05-07T04:43:34;13.00;;;9.40;;
21780;SDS011;52576;53.614;9.894;2023-05-07T04:45:37;13.00;;;9.40;;
21780;SDS011;52576;53.614;9.894;2023-05-07T04:47:42;13.60;;;8.65;;
21780;SDS011;52576;53.614;9.894;2023-05-07T04:49:47;14.02;;;9.68;;
21780;SDS011;52576;53.614;9.894;2023-05-07T04:51:50;13.10;;;8.60;;
21780;SDS011;52576;53.614;9.894;2023-05-07T04:53:56;11.15;;;8.65;;
21780;SDS011;52576;53.614;9.894;2023-05-07T04:56:01;11.75;;;9.18;;
21780;SDS011;52576;53.614;9.894;2023-05-07T04:58:13;11.65;;;8.65;;
21780;SDS011;52576;53.614;9.894;2023-05-07T05:00:19;12.10;;;8.43;;
21780;SDS011;52576;53.614;9.894;2023-05-07T05:02:24;10.88;;;8.50;;
21780;SDS011;52576;53.614;9.894;2023-05-07T05:04:28;10.88;;;8.07;;
21780;SDS011;52576;53.614;9.894;2023-05-07T05:06:31;13.25;;;8.35;;
21780;SDS011;52576;53.614;9.894;2023-05-07T05:08:37;10.18;;;7.53;;
21780;SDS011;52576;53.614;9.894;2023-05-07T05:10:40;13.15;;;8.18;;
21780;SDS011;52576;53.614;9.894;2023-05-07T05:12:45;11.48;;;7.60;;
21780;SDS011;52576;53.614;9.894;2023-05-07T05:14:48;11.45;;;8.13;;
21780;SDS011;52576;53.614;9.894;2023-05-07T05:16:53;10.23;;;7.55;;
21780;SDS011;52576;53.614;9.894;2023-05-07T05:18:57;10.48;;;8.10;;
21780;SDS011;52576;53.614;9.894;2023-05-07T05:21:00;10.40;;;8.13;;
21780;SDS011;52576;53.614;9.894;2023-05-07T05:23:04;9.80;;;7.78;;
21780;SDS011;52576;53.614;9.894;2023-05-07T05:25:08;12.02;;;8.40;;
21780;SDS011;52576;53.614;9.894;2023-05-07T05:27:12;10.93;;;8.20;;
21780;SDS011;52576;53.614;9.894;2023-05-07T05:29:15;10.73;;;7.88;;
21780;SDS011;52576;53.614;9.894;2023-05-07T05:31:19;12.55;;;8.32;;
21780;SDS011;52576;53.614;9.894;2023-05-07T05:33:25;11.52;;;8.07;;
21780;SDS011;52576;53.614;9.894;2023-05-07T05:35:35;10.75;;;8.27;;
21780;SDS011;52576;53.614;9.894;2023-05-07T05:37:43;11.45;;;8.43;;
21780;SDS011;52576;53.614;9.894;2023-05-07T05:39:46;12.52;;;7.80;;
21780;SDS011;52576;53.614;9.894;2023-05-07T05:41:50;11.50;;;8.52;;
21780;SDS011;52576;53.614;9.894;2023-05-07T05:43:54;13.45;;;9.55;;
21780;SDS011;52576;53.614;9.894;2023-05-07T05:45:58;10.68;;;8.48;;
21780;SDS011;52576;53.614;9.894;2023-05-07T05:48:03;11.75;;;8.25;;
21780;SDS011;52576;53.614;9.894;2023-05-07T05:50:09;12.75;;;8.82;;
21780;SDS011;52576;53.614;9.894;2023-05-07T05:52:13;11.88;;;8.93;;
21780;SDS011;52576;53.614;9.894;2023-05-07T05:54:16;14.25;;;8.60;;
21780;SDS011;52576;53.614;9.894;2023-05-07T05:56:19;10.50;;;8.15;;
21780;SDS011;52576;53.614;9.894;2023-05-07T05:58:23;10.73;;;8.18;;
21780;SDS011;52576;53.614;9.894;2023-05-07T06:00:32;10.77;;;7.88;;
21780;SDS011;52576;53.614;9.894;2023-05-07T06:02:38;11.77;;;8.48;;
21780;SDS011;52576;53.614;9.894;2023-05-07T06:04:41;11.82;;;8.00;;
21780;SDS011;52576;53.614;9.894;2023-05-07T06:06:51;10.80;;;8.38;;
21780;SDS011;52576;53.614;9.894;2023-05-07T06:08:54;11.43;;;8.30;;
21780;SDS011;52576;53.614;9.894;2023-05-07T06:11:03;13.57;;;8.75;;
21780;SDS011;52576;53.614;9.894;2023-05-07T06:13:10;11.07;;;8.38;;
21780;SDS011;52576;53.614;9.894;2023-05-07T06:15:14;12.98;;;7.85;;
21780;SDS011;52576;53.614;9.894;2023-05-07T06:17:19;11.02;;;8.23;;
21780;SDS011;52576;53.614;9.894;2023-05-07T06:19:24;11.23;;;8.02;;
21780;SDS011;52576;53.614;9.894;2023-05-07T06:21:29;11.95;;;9.02;;
21780;SDS011;52576;53.614;9.894;2023-05-07T06:23:33;13.60;;;8.75;;
21780;SDS011;52576;53.614;9.894;2023-05-07T06:25:36;10.70;;;8.60;;
21780;SDS011;52576;53.614;9.894;2023-05-07T06:27:40;11.15;;;8.50;;
21780;SDS011;52576;53.614;9.894;2023-05-07T06:29:44;11.35;;;8.15;;
21780;SDS011;52576;53.614;9.894;2023-05-07T06:31:49;11.05;;;8.13;;
21780;SDS011;52576;53.614;9.894;2023-05-07T06:33:53;10.38;;;8.10;;
21780;SDS011;52576;53.614;9.894;2023-05-07T06:35:59;10.15;;;8.20;;
21780;SDS011;52576;53.614;9.894;2023-05-07T06:38:03;10.02;;;8.18;;
21780;SDS011;52576;53.614;9.894;2023-05-07T06:40:08;12.93;;;7.70;;
21780;SDS011;52576;53.614;9.894;2023-05-07T06:42:14;14.15;;;8.55;;
21780;SDS011;52576;53.614;9.894;2023-05-07T06:44:21;11.38;;;8.02;;
21780;SDS011;52576;53.614;9.894;2023-05-07T06:46:33;11.45;;;8.02;;
21780;SDS011;52576;53.614;9.894;2023-05-07T06:48:38;11.40;;;7.95;;
21780;SDS011;52576;53.614;9.894;2023-05-07T06:50:41;13.02;;;8.10;;
21780;SDS011;52576;53.614;9.894;2023-05-07T06:52:45;11.27;;;7.97;;
21780;SDS011;52576;53.614;9.894;2023-05-07T06:54:48;11.05;;;7.85;;
21780;SDS011;52576;53.614;9.894;2023-05-07T06:56:56;10.25;;;8.00;;
21780;SDS011;52576;53.614;9.894;2023-05-07T06:59:01;10.90;;;7.80;;
21780;SDS011;52576;53.614;9.894;2023-05-07T07:01:09;11.38;;;7.90;;
21780;SDS011;52576;53.614;9.894;2023-05-07T07:03:13;11.98;;;8.05;;
21780;SDS011;52576;53.614;9.894;2023-05-07T07:05:17;10.60;;;7.63;;
21780;SDS011;52576;53.614;9.894;2023-05-07T07:07:20;12.77;;;7.82;;
21780;SDS011;52576;53.614;9.894;2023-05-07T07:09:25;10.32;;;7.65;;
21780;SDS011;52576;53.614;9.894;2023-05-07T07:11:28;11.98;;;7.32;;
21780;SDS011;52576;53.614;9.894;2023-05-07T07:13:34;9.88;;;7.00;;
21780;SDS011;52576;53.614;9.894;2023-05-07T07:15:37;10.93;;;7.47;;
21780;SDS011;52576;53.614;9.894;2023-05-07T07:17:40;10.82;;;7.90;;
21780;SDS011;52576;53.614;9.894;2023-05-07T07:19:44;9.50;;;7.30;;
21780;SDS011;52576;53.614;9.894;2023-05-07T07:21:47;9.88;;;6.97;;
21780;SDS011;52576;53.614;9.894;2023-05-07T07:23:51;9.52;;;6.82;;
21780;SDS011;52576;53.614;9.894;2023-05-07T07:25:55;8.85;;;6.82;;
21780;SDS011;52576;53.614;9.894;2023-05-07T07:28:01;9.77;;;6.68;;
21780;SDS011;52576;53.614;9.894;2023-05-07T07:30:06;9.02;;;6.55;;
21780;SDS011;52576;53.614;9.894;2023-05-07T07:32:13;10.35;;;6.90;;
21780;SDS011;52576;53.614;9.894;2023-05-07T07:34:17;9.43;;;6.72;;
21780;SDS011;52576;53.614;9.894;2023-05-07T07:36:20;9.50;;;6.90;;
21780;SDS011;52576;53.614;9.894;2023-05-07T07:38:40;9.70;;;7.28;;
21780;SDS011;52576;53.614;9.894;2023-05-07T07:40:43;8.55;;;6.28;;
21780;SDS011;52576;53.614;9.894;2023-05-07T07:42:47;9.13;;;6.13;;
21780;SDS011;52576;53.614;9.894;2023-05-07T07:44:51;7.40;;;6.00;;
21780;SDS011;52576;53.614;9.894;2023-05-07T07:46:58;8.13;;;6.05;;
21780;SDS011;52576;53.614;9.894;2023-05-07T07:49:03;8.30;;;5.82;;
21780;SDS011;52576;53.614;9.894;2023-05-07T07:51:09;8.02;;;5.80;;
21780;SDS011;52576;53.614;9.894;2023-05-07T07:53:16;7.63;;;6.20;;
21780;SDS011;52576;53.614;9.894;2023-05-07T07:55:22;8.13;;;6.20;;
21780;SDS011;52576;53.614;9.894;2023-05-07T07:57:28;8.77;;;6.30;;
21780;SDS011;52576;53.614;9.894;2023-05-07T07:59:32;8.57;;;5.65;;
21780;SDS011;52576;53.614;9.894;2023-05-07T08:01:35;8.30;;;5.88;;
21780;SDS011;52576;53.614;9.894;2023-05-07T08:03:41;7.15;;;5.32;;
21780;SDS011;52576;53.614;9.894;2023-05-07T08:05:44;8.13;;;6.38;;
21780;SDS011;52576;53.614;9.894;2023-05-07T08:07:47;9.25;;;6.85;;
21780;SDS011;52576;53.614;9.894;2023-05-07T08:09:57;9.65;;;5.90;;
21780;SDS011;52576;53.614;9.894;2023-05-07T08:12:00;8.18;;;5.53;;
21780;SDS011;52576;53.614;9.894;2023-05-07T08:14:07;9.13;;;5.80;;
21780;SDS011;52576;53.614;9.894;2023-05-07T08:16:10;8.68;;;6.07;;
21780;SDS011;52576;53.614;9.894;2023-05-07T08:18:13;9.25;;;5.40;;
21780;SDS011;52576;53.614;9.894;2023-05-07T08:20:20;7.72;;;5.60;;
21780;SDS011;52576;53.614;9.894;2023-05-07T08:22:23;9.27;;;5.43;;
21780;SDS011;52576;53.614;9.894;2023-05-07T08:24:26;7.72;;;5.20;;
21780;SDS011;52576;53.614;9.894;2023-05-07T08:26:30;7.80;;;5.30;;
21780;SDS011;52576;53.614;9.894;2023-05-07T08:28:33;8.30;;;5.25;;
21780;SDS011;52576;53.614;9.894;2023-05-07T08:30:36;9.23;;;5.78;;
21780;SDS011;52576;53.614;9.894;2023-05-07T08:32:40;7.97;;;5.65;;
21780;SDS011;52576;53.614;9.894;2023-05-07T08:34:43;8.63;;;5.15;;
21780;SDS011;52576;53.614;9.894;2023-05-07T08:36:49;8.30;;;5.78;;
21780;SDS011;52576;53.614;9.894;2023-05-07T08:38:55;6.88;;;5.32;;
21780;SDS011;52576;53.614;9.894;2023-05-07T08:40:58;7.00;;;5.60;;
21780;SDS011;52576;53.614;9.894;2023-05-07T08:43:04;6.15;;;5.07;;
21780;SDS011;52576;53.614;9.894;2023-05-07T08:45:10;9.52;;;5.30;;
21780;SDS011;52576;53.614;9.894;2023-05-07T08:47:17;8.90;;;5.70;;
21780;SDS011;52576;53.614;9.894;2023-05-07T08:49:24;6.32;;;5.18;;
21780;SDS011;52576;53.614;9.894;2023-05-07T08:51:28;7.18;;;4.97;;
21780;SDS011;52576;53.614;9.894;2023-05-07T08:53:33;11.05;;;5.75;;
21780;SDS011;52576;53.614;9.894;2023-05-07T08:55:36;7.97;;;5.60;;
21780;SDS011;52576;53.614;9.894;2023-05-07T08:57:40;9.32;;;6.15;;
21780;SDS011;52576;53.614;9.894;2023-05-07T08:59:44;7.57;;;5.50;;
21780;SDS011;52576;53.614;9.894;2023-05-07T09:01:47;9.27;;;5.85;;
21780;SDS011;52576;53.614;9.894;2023-05-07T09:03:51;9.60;;;5.53;;
21780;SDS011;52576;53.614;9.894;2023-05-07T09:05:57;8.60;;;5.85;;
21780;SDS011;52576;53.614;9.894;2023-05-07T09:08:01;8.27;;;5.80;;
21780;SDS011;52576;53.614;9.894;2023-05-07T09:10:07;10.00;;;5.78;;
21780;SDS011;52576;53.614;9.894;2023-05-07T09:12:13;9.93;;;5.75;;
21780;SDS011;52576;53.614;9.894;2023-05-07T09:14:16;8.90;;;5.53;;
21780;SDS011;52576;53.614;9.894;2023-05-07T09:16:20;6.60;;;5.47;;
21780;SDS011;52576;53.614;9.894;2023-05-07T09:18:25;7.55;;;5.80;;
21780;SDS011;52576;53.614;9.894;2023-05-07T09:20:30;8.43;;;5.55;;
21780;SDS011;52576;53.614;9.894;2023-05-07T09:22:36;8.57;;;5.75;;
21780;SDS011;52576;53.614;9.894;2023-05-07T09:24:47;6.95;;;5.35;;
21780;SDS011;52576;53.614;9.894;2023-05-07T09:26:54;8.02;;;5.88;;
21780;SDS011;52576;53.614;9.894;2023-05-07T09:28:57;7.20;;;5.43;;
21780;SDS011;52576;53.614;9.894;2023-05-07T09:31:01;6.47;;;5.10;;
21780;SDS011;52576;53.614;9.894;2023-05-07T09:33:04;6.68;;;4.80;;
21780;SDS011;52576;53.614;9.894;2023-05-07T09:35:14;7.32;;;5.80;;
21780;SDS011;52576;53.614;9.894;2023-05-07T09:37:21;11.05;;;5.22;;
21780;SDS011;52576;53.614;9.894;2023-05-07T09:39:24;7.18;;;5.10;;
21780;SDS011;52576;53.614;9.894;2023-05-07T09:41:28;6.75;;;5.13;;
21780;SDS011;52576;53.614;9.894;2023-05-07T09:43:44;6.18;;;4.82;;
21780;SDS011;52576;53.614;9.894;2023-05-07T09:45:49;5.90;;;4.78;;
21780;SDS011;52576;53.614;9.894;2023-05-07T09:47:56;8.38;;;5.28;;
21780;SDS011;52576;53.614;9.894;2023-05-07T09:50:02;9.10;;;4.82;;
21780;SDS011;52576;53.614;9.894;2023-05-07T09:52:13;8.68;;;5.40;;
21780;SDS011;52576;53.614;9.894;2023-05-07T09:54:21;9.93;;;4.95;;
21780;SDS011;52576;53.614;9.894;2023-05-07T09:56:27;7.72;;;5.32;;
21780;SDS011;52576;53.614;9.894;2023-05-07T09:58:33;10.38;;;5.18;;
21780;SDS011;52576;53.614;9.894;2023-05-07T10:00:42;7.65;;;5.03;;
21780;SDS011;52576;53.614;9.894;2023-05-07T10:02:49;6.82;;;4.90;;
21780;SDS011;52576;53.614;9.894;2023-05-07T10:05:06;8.63;;;4.72;;
21780;SDS011;52576;53.614;9.894;2023-05-07T10:07:13;9.65;;;4.82;;
21780;SDS011;52576;53.614;9.894;2023-05-07T10:09:17;8.52;;;5.55;;
21780;SDS011;52576;53.614;9.894;2023-05-07T10:11:21;8.07;;;4.82;;
21780;SDS011;52576;53.614;9.894;2023-05-07T10:13:25;6.45;;;4.63;;
21780;SDS011;52576;53.614;9.894;2023-05-07T10:15:32;6.82;;;4.70;;
21780;SDS011;52576;53.614;9.894;2023-05-07T10:17:38;6.13;;;5.05;;
21780;SDS011;52576;53.614;9.894;2023-05-07T10:19:44;10.75;;;5.00;;
21780;SDS011;52576;53.614;9.894;2023-05-07T10:21:48;6.80;;;4.97;;
21780;SDS011;52576;53.614;9.894;2023-05-07T10:23:58;6.65;;;4.57;;
21780;SDS011;52576;53.614;9.894;2023-05-07T10:26:05;6.07;;;4.82;;
21780;SDS011;52576;53.614;9.894;2023-05-07T10:28:11;6.22;;;4.60;;
21780;SDS011;52576;53.614;9.894;2023-05-07T10:30:21;6.80;;;4.88;;
21780;SDS011;52576;53.614;9.894;2023-05-07T10:32:40;7.13;;;5.10;;
21780;SDS011;52576;53.614;9.894;2023-05-07T10:34:56;5.72;;;4.90;;
21780;SDS011;52576;53.614;9.894;2023-05-07T10:37:02;7.38;;;5.10;;
21780;SDS011;52576;53.614;9.894;2023-05-07T10:39:06;7.63;;;4.68;;
21780;SDS011;52576;53.614;9.894;2023-05-07T10:41:11;6.55;;;5.03;;
21780;SDS011;52576;53.614;9.894;2023-05-07T10:43:17;7.10;;;5.25;;
21780;SDS011;52576;53.614;9.894;2023-05-07T10:45:26;9.57;;;5.00;;
21780;SDS011;52576;53.614;9.894;2023-05-07T10:47:32;7.32;;;4.90;;
21780;SDS011;52576;53.614;9.894;2023-05-07T10:49:38;7.90;;;4.78;;
21780;SDS011;52576;53.614;9.894;2023-05-07T10:52:20;7.72;;;4.82;;
21780;SDS011;52576;53.614;9.894;2023-05-07T10:54:37;6.57;;;4.85;;
21780;SDS011;52576;53.614;9.894;2023-05-07T10:56:44;11.27;;;4.70;;
21780;SDS011;52576;53.614;9.894;2023-05-07T11:01:50;5.50;;;4.50;;
21780;SDS011;52576;53.614;9.894;2023-05-07T11:04:14;5.85;;;4.82;;
21780;SDS011;52576;53.614;9.894;2023-05-07T11:06:31;7.90;;;4.53;;
21780;SDS011;52576;53.614;9.894;2023-05-07T11:08:54;7.05;;;4.63;;
21780;SDS011;52576;53.614;9.894;2023-05-07T11:11:07;6.72;;;4.75;;
21780;SDS011;52576;53.614;9.894;2023-05-07T11:13:19;5.65;;;4.50;;
21780;SDS011;52576;53.614;9.894;2023-05-07T11:16:19;4.95;;;3.90;;
21780;SDS011;52576;53.614;9.894;2023-05-07T11:18:45;5.53;;;4.28;;
21780;SDS011;52576;53.614;9.894;2023-05-07T11:23:12;7.45;;;4.88;;
21780;SDS011;52576;53.614;9.894;2023-05-07T11:26:03;5.70;;;4.68;;
21780;SDS011;52576;53.614;9.894;2023-05-07T11:28:07;5.07;;;4.03;;
21780;SDS011;52576;53.614;9.894;2023-05-07T11:30:21;6.10;;;3.95;;
21780;SDS011;52576;53.614;9.894;2023-05-07T11:32:26;6.25;;;4.10;;
21780;SDS011;52576;53.614;9.894;2023-05-07T11:34:32;5.05;;;3.83;;
21780;SDS011;52576;53.614;9.894;2023-05-07T11:36:37;8.80;;;4.00;;
21780;SDS011;52576;53.614;9.894;2023-05-07T11:38:49;5.20;;;3.90;;
21780;SDS011;52576;53.614;9.894;2023-05-07T11:40:53;7.00;;;3.97;;
21780;SDS011;52576;53.614;9.894;2023-05-07T11:42:57;6.43;;;4.50;;
21780;SDS011;52576;53.614;9.894;2023-05-07T11:45:01;5.40;;;4.15;;
21780;SDS011;52576;53.614;9.894;2023-05-07T11:47:05;5.72;;;4.35;;
21780;SDS011;52576;53.614;9.894;2023-05-07T11:49:08;5.63;;;3.97;;
21780;SDS011;52576;53.614;9.894;2023-05-07T11:51:12;5.65;;;4.07;;
21780;SDS011;52576;53.614;9.894;2023-05-07T11:53:15;4.97;;;3.75;;
21780;SDS011;52576;53.614;9.894;2023-05-07T11:55:20;4.50;;;3.30;;
21780;SDS011;52576;53.614;9.894;2023-05-07T11:57:25;5.03;;;3.85;;
21780;SDS011;52576;53.614;9.894;2023-05-07T11:59:29;5.95;;;3.92;;
21780;SDS011;52576;53.614;9.894;2023-05-07T12:01:34;4.70;;;3.67;;
21780;SDS011;52576;53.614;9.894;2023-05-07T12:03:39;5.75;;;3.78;;
21780;SDS011;52576;53.614;9.894;2023-05-07T12:05:45;5.10;;;4.13;;
21780;SDS011;52576;53.614;9.894;2023-05-07T12:07:49;5.70;;;3.88;;
21780;SDS011;52576;53.614;9.894;2023-05-07T12:09:59;4.97;;;3.83;;
21780;SDS011;52576;53.614;9.894;2023-05-07T12:12:04;4.20;;;3.65;;
21780;SDS011;52576;53.614;9.894;2023-05-07T12:14:07;4.90;;;3.75;;
21780;SDS011;52576;53.614;9.894;2023-05-07T12:16:13;4.30;;;3.30;;
21780;SDS011;52576;53.614;9.894;2023-05-07T12:18:17;6.05;;;3.70;;
21780;SDS011;52576;53.614;9.894;2023-05-07T12:20:21;6.88;;;3.85;;
21780;SDS011;52576;53.614;9.894;2023-05-07T12:22:24;4.20;;;3.28;;
21780;SDS011;52576;53.614;9.894;2023-05-07T12:24:27;5.00;;;3.40;;
21780;SDS011;52576;53.614;9.894;2023-05-07T12:26:31;6.80;;;3.58;;
21780;SDS011;52576;53.614;9.894;2023-05-07T12:28:38;6.07;;;3.33;;
21780;SDS011;52576;53.614;9.894;2023-05-07T12:30:42;6.10;;;3.50;;
21780;SDS011;52576;53.614;9.894;2023-05-07T12:32:46;4.03;;;3.60;;
21780;SDS011;52576;53.614;9.894;2023-05-07T12:34:49;4.53;;;3.40;;